Time;durP1;ratioP1;P1;durP2;ratioP2;P2;SDS_P1;SDS_P2;PMS_P1;PMS_P2;Temp;Humidity;BMP_temperature;BMP_pressure;BME280_temperature;BME280_humidity;BME280_pressure;Samples;Min_cycle;Max_cycle;Signal;HPM_P1;HPM_P2
2024/03/18 00:00:12;;;;;;;;;;;;;;;21.69;27.25;97916.84;5017885;28;949;-81
2024/03/18 00:02:38;;;;;;;;;;;;;;;21.81;27.21;97916.91;5018381;28;1000;-81
2024/03/18 00:05:04;;;;;;;;;;;;;;;21.70;27.15;97912.78;5017766;28;1918;-81
2024/03/18 00:07:30;;;;;;;;;;;;;;;21.63;27.29;97921.47;5000660;28;929;-81
2024/03/18 00:09:56;;;;;;;;;;;;;;;21.45;27.30;97919.13;4985649;28;1211;-81
2024/03/18 00:12:22;;;;;;;;;;;;;;;21.81;27.04;97916.09;4986352;28;969;-81
2024/03/18 00:14:48;;;;;;;;;;;;;;;21.71;27.12;97909.50;4985637;28;814;-81
2024/03/18 00:17:14;;;;;;;;;;;;;;;21.93;26.94;97906.06;4970989;28;1120;-81
2024/03/18 00:19:40;;;;;;;;;;;;;;;21.81;27.15;97904.75;4984806;28;960;-80
2024/03/18 00:22:05;;;;;;;;;;;;;;;21.73;27.06;97907.03;4986633;28;736;-80
2024/03/18 00:24:31;;;;;;;;;;;;;;;21.42;27.36;97903.06;4985380;28;1922;-81
2024/03/18 00:26:57;;;;;;;;;;;;;;;21.41;27.72;97912.78;4985759;28;1082;-81
2024/03/18 00:29:23;;;;;;;;;;;;;;;21.63;27.36;97904.50;4969250;28;861;-81
2024/03/18 00:31:50;;;;;;;;;;;;;;;21.82;27.10;97895.84;5002730;28;1022;-80
2024/03/18 00:34:15;;;;;;;;;;;;;;;21.75;27.31;97889.56;4985453;28;799;-81
2024/03/18 00:36:41;;;;;;;;;;;;;;;21.96;26.90;97882.47;5001839;28;767;-80
2024/03/18 00:39:07;;;;;;;;;;;;;;;21.71;27.22;97884.03;4985725;28;1203;-81
2024/03/18 00:41:48;;;;;;;;;;;;;;;21.75;27.07;97881.06;5002316;28;915;-81
2024/03/18 00:44:19;;;;;;;;;;;;;;;21.59;27.13;97884.75;5001174;28;946;-81
2024/03/18 00:46:46;;;;;;;;;;;;;;;21.76;27.29;97886.31;5002422;28;969;-81
2024/03/18 00:49:12;;;;;;;;;;;;;;;22.07;26.60;97885.78;4985144;28;1073;-81
2024/03/18 00:51:38;;;;;;;;;;;;;;;21.91;26.89;97891.53;5002175;28;827;-81
2024/03/18 00:54:04;;;;;;;;;;;;;;;21.99;26.58;97881.59;4985363;28;1125;-81
2024/03/18 00:56:30;;;;;;;;;;;;;;;21.79;26.93;97882.56;5001882;28;890;-81
2024/03/18 00:58:56;;;;;;;;;;;;;;;21.25;27.54;97869.09;5000813;28;940;-81
2024/03/18 01:01:22;;;;;;;;;;;;;;;21.53;27.15;97878.84;5002239;28;716;-81
2024/03/18 01:03:48;;;;;;;;;;;;;;;22.10;26.67;97874.38;4984963;28;1050;-81
2024/03/18 01:06:14;;;;;;;;;;;;;;;21.80;27.21;97872.81;4986066;28;1903;-81
2024/03/18 01:08:40;;;;;;;;;;;;;;;21.96;27.03;97865.47;4984638;28;1120;-81
2024/03/18 01:11:05;;;;;;;;;;;;;;;21.82;26.98;97856.19;5019477;28;842;-81
2024/03/18 01:13:35;;;;;;;;;;;;;;;21.43;27.58;97862.19;5053844;28;925;-81
2024/03/18 01:16:01;;;;;;;;;;;;;;;21.48;27.41;97865.25;5022875;28;755;-81
2024/03/18 01:18:27;;;;;;;;;;;;;;;21.50;27.50;97851.47;5036802;28;819;-81
2024/03/18 01:20:53;;;;;;;;;;;;;;;21.92;27.15;97853.50;5039024;28;858;-81
2024/03/18 01:23:19;;;;;;;;;;;;;;;21.69;27.10;97852.53;5020277;28;887;-81
2024/03/18 01:25:44;;;;;;;;;;;;;;;21.74;27.40;97849.13;5020664;28;1918;-81
2024/03/18 01:28:10;;;;;;;;;;;;;;;21.73;27.22;97841.09;4971374;28;1234;-81
2024/03/18 01:30:36;;;;;;;;;;;;;;;21.69;27.28;97835.53;5004273;28;1205;-80
2024/03/18 01:33:02;;;;;;;;;;;;;;;21.52;27.41;97834.03;4987809;28;1203;-81
2024/03/18 01:35:33;;;;;;;;;;;;;;;21.61;27.50;97834.16;4984756;28;1135;-80
2024/03/18 01:38:01;;;;;;;;;;;;;;;21.71;27.25;97821.72;4985014;28;867;-81
2024/03/18 01:40:27;;;;;;;;;;;;;;;21.66;27.61;97829.97;4984595;28;1115;-80
2024/03/18 01:42:52;;;;;;;;;;;;;;;21.77;27.63;97814.25;5000130;28;979;-81
2024/03/18 01:45:20;;;;;;;;;;;;;;;21.85;27.17;97821.28;4984263;28;1985;-81
2024/03/18 01:47:46;;;;;;;;;;;;;;;21.78;27.18;97810.19;5000777;28;1211;-81
2024/03/18 01:50:13;;;;;;;;;;;;;;;21.80;27.21;97821.84;4964438;28;1316;-80
2024/03/18 01:52:38;;;;;;;;;;;;;;;21.61;27.37;97810.72;4933474;28;1201;-81
2024/03/18 01:55:04;;;;;;;;;;;;;;;21.70;27.40;97817.28;4964405;28;802;-81
2024/03/18 01:57:30;;;;;;;;;;;;;;;21.97;26.93;97807.59;4965294;28;1073;-81
2024/03/18 01:59:57;;;;;;;;;;;;;;;21.87;27.06;97811.56;4948391;28;893;-80
2024/03/18 02:02:23;;;;;;;;;;;;;;;21.76;27.36;97812.69;4949336;28;961;-81
2024/03/18 02:04:49;;;;;;;;;;;;;;;21.84;27.04;97808.38;4964697;28;1972;-81
2024/03/18 02:07:41;;;;;;;;;;;;;;;21.73;27.27;97813.56;4980809;28;954;-81
2024/03/18 02:10:09;;;;;;;;;;;;;;;21.52;27.44;97812.16;4903867;29;934;-81
2024/03/18 02:12:36;;;;;;;;;;;;;;;21.41;27.80;97808.84;4889713;29;1101;-81
2024/03/18 02:15:01;;;;;;;;;;;;;;;21.88;27.23;97808.25;4888426;29;959;-81
2024/03/18 02:17:27;;;;;;;;;;;;;;;21.84;27.49;97808.38;4904742;29;788;-81
2024/03/18 02:19:52;;;;;;;;;;;;;;;21.85;27.42;97797.81;4888273;29;924;-81
2024/03/18 02:22:18;;;;;;;;;;;;;;;21.92;27.04;97797.63;4888877;29;944;-81
2024/03/18 02:24:44;;;;;;;;;;;;;;;21.73;27.15;97801.44;4887957;29;1915;-81
2024/03/18 02:27:10;;;;;;;;;;;;;;;21.49;27.42;97801.72;4894359;29;1081;-81
2024/03/18 02:29:36;;;;;;;;;;;;;;;21.18;27.97;97801.38;4922795;29;1014;-81
2024/03/18 02:32:01;;;;;;;;;;;;;;;21.49;27.95;97795.28;4923197;29;803;-81
2024/03/18 02:34:27;;;;;;;;;;;;;;;21.73;27.26;97796.56;4906591;29;1057;-80
2024/03/18 02:36:53;;;;;;;;;;;;;;;21.56;27.45;97793.03;4903884;29;1278;-81
2024/03/18 02:39:22;;;;;;;;;;;;;;;21.77;27.37;97791.59;4923482;29;893;-81
2024/03/18 02:41:48;;;;;;;;;;;;;;;21.96;26.91;97792.63;4942166;29;1060;-81
2024/03/18 02:44:13;;;;;;;;;;;;;;;21.60;27.41;97787.25;4941585;29;871;-81
2024/03/18 02:46:39;;;;;;;;;;;;;;;21.47;27.37;97781.56;4953938;28;1975;-82
2024/03/18 02:49:05;;;;;;;;;;;;;;;21.52;27.93;97786.69;4963637;28;1126;-81
2024/03/18 02:51:30;;;;;;;;;;;;;;;21.71;27.35;97793.41;4979976;28;732;-81
2024/03/18 02:53:56;;;;;;;;;;;;;;;21.76;27.05;97789.19;4963594;28;896;-81
2024/03/18 02:56:21;;;;;;;;;;;;;;;21.78;27.15;97787.53;4948014;28;1189;-81
2024/03/18 02:58:47;;;;;;;;;;;;;;;21.88;27.10;97787.66;4963130;28;799;-80
2024/03/18 03:01:12;;;;;;;;;;;;;;;21.63;27.15;97780.69;4948064;28;1058;-81
2024/03/18 03:03:38;;;;;;;;;;;;;;;21.40;27.49;97781.81;4978956;28;1253;-81
2024/03/18 03:06:04;;;;;;;;;;;;;;;21.28;27.94;97783.31;4979956;28;1910;-81
2024/03/18 03:08:30;;;;;;;;;;;;;;;21.51;27.66;97787.16;4946969;28;848;-81
2024/03/18 03:10:56;;;;;;;;;;;;;;;21.57;27.61;97788.16;4947851;28;885;-81
2024/03/18 03:13:22;;;;;;;;;;;;;;;21.71;27.25;97793.41;4951752;28;1170;-81
2024/03/18 03:15:47;;;;;;;;;;;;;;;21.90;27.09;97782.31;5035943;28;1226;-80
2024/03/18 03:18:14;;;;;;;;;;;;;;;21.65;27.44;97777.41;5001169;28;1211;-81
2024/03/18 03:20:40;;;;;;;;;;;;;;;21.42;27.49;97775.69;5003042;28;993;-81
2024/03/18 03:23:06;;;;;;;;;;;;;;;21.51;27.40;97784.31;5002026;28;879;-80
2024/03/18 03:25:32;;;;;;;;;;;;;;;21.61;27.29;97788.06;5002062;28;1906;-81
2024/03/18 03:27:58;;;;;;;;;;;;;;;21.68;27.21;97782.97;5001942;28;1111;-81
2024/03/18 03:30:24;;;;;;;;;;;;;;;21.69;27.22;97778.91;5018043;28;836;-81
2024/03/18 03:32:49;;;;;;;;;;;;;;;21.77;27.24;97774.59;4985824;28;1069;-81
2024/03/18 03:35:16;;;;;;;;;;;;;;;21.81;27.04;97775.31;4985456;28;988;-81
2024/03/18 03:37:42;;;;;;;;;;;;;;;21.63;27.16;97777.88;5018468;28;819;-81
2024/03/18 03:40:10;;;;;;;;;;;;;;;21.52;27.18;97768.91;5001156;28;960;-81
2024/03/18 03:42:35;;;;;;;;;;;;;;;21.47;27.16;97766.63;5018356;28;847;-81
2024/03/18 03:45:01;;;;;;;;;;;;;;;21.78;26.98;97758.41;5001634;28;1983;-81
2024/03/18 03:47:26;;;;;;;;;;;;;;;21.76;26.83;97753.22;5015364;28;786;-81
2024/03/18 03:49:52;;;;;;;;;;;;;;;21.75;27.03;97753.63;5020481;28;961;-81
2024/03/18 03:52:18;;;;;;;;;;;;;;;21.62;27.16;97762.13;5020007;28;732;-81
2024/03/18 03:54:43;;;;;;;;;;;;;;;21.80;27.13;97758.75;5002393;28;1330;-81
2024/03/18 03:57:11;;;;;;;;;;;;;;;21.98;26.52;97749.69;5036518;28;890;-81
2024/03/18 03:59:36;;;;;;;;;;;;;;;21.71;27.09;97759.44;4998092;28;1161;-81
2024/03/18 04:02:04;;;;;;;;;;;;;;;21.37;27.64;97756.44;4998806;28;897;-82
2024/03/18 04:04:29;;;;;;;;;;;;;;;21.44;27.72;97756.19;4997415;28;1931;-80
2024/03/18 04:06:55;;;;;;;;;;;;;;;21.43;27.37;97758.25;5014733;28;756;-83
2024/03/18 04:09:21;;;;;;;;;;;;;;;21.61;27.37;97760.56;4997988;28;921;-80
2024/03/18 04:11:47;;;;;;;;;;;;;;;21.65;27.10;97760.41;5014479;28;1336;-81
2024/03/18 04:14:14;;;;;;;;;;;;;;;21.61;27.55;97749.22;4998005;28;1308;-81
2024/03/18 04:16:40;;;;;;;;;;;;;;;21.44;27.35;97751.31;4999575;28;748;-82
2024/03/18 04:19:06;;;;;;;;;;;;;;;21.33;27.61;97739.53;4997237;28;920;-82
2024/03/18 04:21:32;;;;;;;;;;;;;;;21.38;27.27;97746.69;4998622;28;1531;-82
2024/03/18 04:23:59;;;;;;;;;;;;;;;21.31;27.61;97742.81;4997795;28;893;-82
2024/03/18 04:26:24;;;;;;;;;;;;;;;21.69;27.03;97744.91;4998316;28;1887;-82
2024/03/18 04:28:51;;;;;;;;;;;;;;;21.83;26.73;97747.31;4997427;28;720;-82
2024/03/18 04:31:17;;;;;;;;;;;;;;;22.00;26.58;97750.03;5031051;28;893;-82
2024/03/18 04:33:43;;;;;;;;;;;;;;;21.73;27.27;97751.25;5034774;28;1203;-81
2024/03/18 04:36:09;;;;;;;;;;;;;;;22.00;26.76;97747.19;5052005;28;857;-82
2024/03/18 04:38:34;;;;;;;;;;;;;;;21.92;26.91;97748.69;5019042;28;715;-82
2024/03/18 04:41:00;;;;;;;;;;;;;;;21.76;27.03;97767.38;5021589;28;787;-83
2024/03/18 04:43:26;;;;;;;;;;;;;;;21.57;27.24;97754.19;5019905;28;819;-82
2024/03/18 04:45:52;;;;;;;;;;;;;;;21.42;27.71;97753.03;5020694;28;1910;-83
2024/03/18 04:48:18;;;;;;;;;;;;;;;21.72;27.27;97749.69;5051615;28;845;-82
2024/03/18 04:50:43;;;;;;;;;;;;;;;21.71;27.29;97747.28;5020803;28;825;-82
2024/03/18 04:53:09;;;;;;;;;;;;;;;21.79;27.13;97760.78;5035106;28;740;-82
2024/03/18 04:55:34;;;;;;;;;;;;;;;21.60;27.52;97761.78;5022620;28;914;-82
2024/03/18 04:58:00;;;;;;;;;;;;;;;21.58;27.18;97761.44;5023218;28;743;-83
2024/03/18 05:00:26;;;;;;;;;;;;;;;21.37;27.67;97762.09;5038442;28;787;-82
2024/03/18 05:02:52;;;;;;;;;;;;;;;21.29;27.96;97767.91;5055231;28;809;-83
2024/03/18 05:05:17;;;;;;;;;;;;;;;21.60;27.13;97764.59;5023074;28;1906;-83
2024/03/18 05:07:43;;;;;;;;;;;;;;;21.73;27.21;97761.81;5038057;28;898;-83
2024/03/18 05:10:10;;;;;;;;;;;;;;;21.85;27.06;97761.78;5037397;28;771;-82
2024/03/18 05:12:36;;;;;;;;;;;;;;;21.85;26.90;97772.34;5020153;28;875;-82
2024/03/18 05:15:02;;;;;;;;;;;;;;;21.80;27.06;97773.69;5019690;28;926;-82
2024/03/18 05:17:28;;;;;;;;;;;;;;;21.70;27.06;97780.47;5004560;28;1037;-82
2024/03/18 05:19:55;;;;;;;;;;;;;;;21.28;27.58;97788.16;5019583;28;1297;-82
2024/03/18 05:22:20;;;;;;;;;;;;;;;21.69;27.20;97795.09;5004315;28;803;-80
2024/03/18 05:24:47;;;;;;;;;;;;;;;21.66;27.40;97791.13;5019930;28;1918;-80
2024/03/18 05:27:13;;;;;;;;;;;;;;;21.94;27.04;97797.16;5004146;28;1232;-80
2024/03/18 05:29:38;;;;;;;;;;;;;;;21.85;26.90;97798.63;5003179;28;1218;-79
2024/03/18 05:32:11;;;;;;;;;;;;;;;21.93;26.83;97787.09;5020391;28;785;-80
2024/03/18 05:34:37;;;;;;;;;;;;;;;21.05;27.93;97789.22;5019728;28;1130;-80
2024/03/18 05:37:02;;;;;;;;;;;;;;;21.22;27.64;97779.44;5020706;28;1111;-80
2024/03/18 05:39:29;;;;;;;;;;;;;;;21.83;27.08;97789.78;5019714;28;1232;-79
2024/03/18 05:41:54;;;;;;;;;;;;;;;21.74;27.25;97781.16;5020225;28;847;-80
2024/03/18 05:44:20;;;;;;;;;;;;;;;21.95;26.64;97782.53;5033089;28;1387;-79
2024/03/18 05:46:45;;;;;;;;;;;;;;;21.75;27.31;97777.09;5022262;28;1910;-80
2024/03/18 05:49:11;;;;;;;;;;;;;;;21.58;27.12;97773.56;5020450;28;1087;-80
2024/03/18 05:51:37;;;;;;;;;;;;;;;21.53;27.08;97773.31;5037966;28;728;-80
2024/03/18 05:54:05;;;;;;;;;;;;;;;21.39;27.74;97765.25;5020108;28;1245;-80
2024/03/18 05:56:31;;;;;;;;;;;;;;;21.70;27.28;97774.03;5022385;28;819;-80
2024/03/18 05:58:57;;;;;;;;;;;;;;;21.80;26.99;97773.69;5053085;28;790;-80
2024/03/18 06:01:22;;;;;;;;;;;;;;;21.74;27.01;97772.66;5037851;28;707;-80
2024/03/18 06:03:48;;;;;;;;;;;;;;;21.88;26.92;97765.00;5036356;28;755;-80
2024/03/18 06:06:14;;;;;;;;;;;;;;;22.00;26.56;97770.63;5019621;28;1911;-80
2024/03/18 06:08:39;;;;;;;;;;;;;;;21.78;26.82;97767.69;4985912;28;838;-80
2024/03/18 06:11:05;;;;;;;;;;;;;;;21.39;27.50;97770.91;5019995;28;937;-80
2024/03/18 06:13:31;;;;;;;;;;;;;;;21.05;28.04;97775.09;5002196;28;688;-80
2024/03/18 06:15:57;;;;;;;;;;;;;;;21.53;27.26;97765.63;5003381;28;894;-80
2024/03/18 06:18:23;;;;;;;;;;;;;;;21.71;27.29;97764.28;4986041;28;843;-80
2024/03/18 06:20:50;;;;;;;;;;;;;;;21.95;26.74;97761.91;5003893;28;934;-80
2024/03/18 06:23:22;;;;;;;;;;;;;;;21.79;26.91;97760.78;5018393;28;830;-79
2024/03/18 06:26:00;;;;;;;;;;;;;;;21.78;26.72;97759.19;4987958;28;1906;-80
2024/03/18 06:28:27;;;;;;;;;;;;;;;21.25;27.59;97761.56;4983547;28;1291;-80
2024/03/18 06:30:52;;;;;;;;;;;;;;;21.35;27.40;97764.56;4984041;28;974;-79
2024/03/18 06:33:18;;;;;;;;;;;;;;;21.91;26.94;97767.69;4998956;28;866;-80
2024/03/18 06:35:45;;;;;;;;;;;;;;;21.67;26.88;97764.41;4960513;28;949;-79
2024/03/18 06:38:11;;;;;;;;;;;;;;;21.91;26.73;97764.06;4943355;29;892;-80
2024/03/18 06:40:36;;;;;;;;;;;;;;;21.80;26.69;97768.03;4976922;28;1431;-79
2024/03/18 06:43:02;;;;;;;;;;;;;;;21.77;26.79;97774.59;4960323;28;1221;-80
2024/03/18 06:45:28;;;;;;;;;;;;;;;21.66;27.24;97762.81;4960954;28;1975;-79
2024/03/18 06:47:54;;;;;;;;;;;;;;;21.76;26.84;97761.69;4944292;29;1225;-79
2024/03/18 06:50:20;;;;;;;;;;;;;;;21.29;27.34;97753.75;4944046;29;1270;-80
2024/03/18 06:52:46;;;;;;;;;;;;;;;21.69;27.13;97761.13;4961006;29;822;-80
2024/03/18 06:55:11;;;;;;;;;;;;;;;21.71;26.97;97770.75;4959722;29;962;-79
2024/03/18 06:57:37;;;;;;;;;;;;;;;21.78;27.12;97778.22;4960441;28;916;-80
2024/03/18 07:00:06;;;;;;;;;;;;;;;21.61;27.08;97774.72;4974309;28;1164;-79
2024/03/18 07:02:32;;;;;;;;;;;;;;;21.83;27.01;97767.13;4963908;28;1195;-80
2024/03/18 07:04:57;;;;;;;;;;;;;;;22.00;26.47;97767.03;4978973;28;1980;-80
2024/03/18 07:07:23;;;;;;;;;;;;;;;21.44;27.17;97778.84;4964013;28;1130;-80
2024/03/18 07:09:48;;;;;;;;;;;;;;;21.40;27.30;97772.50;4979064;28;799;-80
2024/03/18 07:12:15;;;;;;;;;;;;;;;21.71;27.09;97770.75;4985288;28;1218;-80
2024/03/18 07:14:41;;;;;;;;;;;;;;;21.77;26.91;97757.63;5018941;28;775;-80
2024/03/18 07:17:07;;;;;;;;;;;;;;;21.69;27.21;97764.72;5052898;28;711;-79
2024/03/18 07:19:33;;;;;;;;;;;;;;;21.79;26.89;97763.63;5035348;28;795;-80
2024/03/18 07:22:00;;;;;;;;;;;;;;;21.70;26.61;97757.81;5036132;28;799;-80
2024/03/18 07:24:26;;;;;;;;;;;;;;;21.53;26.94;97764.84;5052683;28;866;-80
2024/03/18 07:26:52;;;;;;;;;;;;;;;21.29;27.29;97762.25;5003220;28;1979;-80
2024/03/18 07:29:19;;;;;;;;;;;;;;;21.78;26.70;97752.75;5017413;28;911;-80
2024/03/18 07:31:47;;;;;;;;;;;;;;;21.84;26.70;97750.94;4986924;28;1212;-80
2024/03/18 07:34:13;;;;;;;;;;;;;;;21.70;26.81;97746.50;5001410;28;1304;-80
2024/03/18 07:36:41;;;;;;;;;;;;;;;21.67;26.96;97744.59;5002037;28;1273;-80
2024/03/18 07:39:07;;;;;;;;;;;;;;;21.84;26.73;97734.72;4982405;28;937;-78
2024/03/18 07:41:32;;;;;;;;;;;;;;;21.56;27.03;97746.94;4982627;28;787;-79
2024/03/18 07:43:59;;;;;;;;;;;;;;;21.63;26.68;97746.72;4966112;28;1257;-80
2024/03/18 07:46:25;;;;;;;;;;;;;;;21.19;27.26;97739.91;4967111;28;1902;-80
2024/03/18 07:48:50;;;;;;;;;;;;;;;21.49;27.17;97744.31;4998045;28;882;-79
2024/03/18 07:51:16;;;;;;;;;;;;;;;21.78;26.76;97742.22;4982816;28;832;-80
2024/03/18 07:53:41;;;;;;;;;;;;;;;21.79;26.78;97732.47;4964993;28;796;-80
2024/03/18 07:56:07;;;;;;;;;;;;;;;21.79;26.90;97728.84;4998760;28;700;-80
2024/03/18 07:58:33;;;;;;;;;;;;;;;21.87;26.54;97732.25;4981065;28;1240;-80
2024/03/18 08:00:59;;;;;;;;;;;;;;;21.88;26.40;97728.16;4967367;28;956;-80
2024/03/18 08:03:25;;;;;;;;;;;;;;;21.62;26.69;97736.66;4996951;28;897;-80
2024/03/18 08:05:51;;;;;;;;;;;;;;;21.28;27.43;97737.22;4998666;28;1981;-80
2024/03/18 08:08:17;;;;;;;;;;;;;;;21.92;26.55;97731.69;4997574;28;853;-80
2024/03/18 08:10:43;;;;;;;;;;;;;;;21.70;26.94;97726.66;4981100;28;1166;-80
2024/03/18 08:13:08;;;;;;;;;;;;;;;21.58;27.26;97731.09;5016855;28;801;-80
2024/03/18 08:15:34;;;;;;;;;;;;;;;21.72;27.00;97721.38;5018006;28;782;-79
2024/03/18 08:17:59;;;;;;;;;;;;;;;21.70;26.81;97723.06;5001280;28;1218;-79
2024/03/18 08:20:25;;;;;;;;;;;;;;;21.66;26.80;97723.19;5015267;28;904;-77
2024/03/18 08:22:51;;;;;;;;;;;;;;;21.55;26.91;97717.03;5015017;28;939;-77
2024/03/18 08:25:16;;;;;;;;;;;;;;;21.49;26.74;97730.16;4999182;28;1906;-77
2024/03/18 08:27:42;;;;;;;;;;;;;;;21.86;26.74;97720.09;5000300;28;1219;-77
2024/03/18 08:30:08;;;;;;;;;;;;;;;21.60;26.70;97719.31;5019264;28;820;-77
2024/03/18 08:32:34;;;;;;;;;;;;;;;21.60;27.01;97713.63;5002875;28;820;-77
2024/03/18 08:35:00;;;;;;;;;;;;;;;21.75;26.73;97703.44;5005302;28;1239;-77
2024/03/18 08:37:26;;;;;;;;;;;;;;;21.69;26.60;97710.94;5008022;28;1084;-77
2024/03/18 08:39:55;;;;;;;;;;;;;;;21.75;26.45;97711.16;5018707;28;787;-77
2024/03/18 08:42:21;;;;;;;;;;;;;;;21.70;26.57;97704.00;5002373;28;960;-77
2024/03/18 08:44:47;;;;;;;;;;;;;;;21.59;26.66;97709.22;5001885;28;1985;-77
2024/03/18 08:47:13;;;;;;;;;;;;;;;21.57;26.77;97708.91;4999221;28;1128;-77
2024/03/18 08:49:39;;;;;;;;;;;;;;;21.80;26.70;97705.72;4998613;28;1254;-77
2024/03/18 08:52:04;;;;;;;;;;;;;;;21.87;26.47;97698.25;4999089;28;751;-77
2024/03/18 08:54:30;;;;;;;;;;;;;;;21.73;26.71;97694.63;4998517;28;911;-77
2024/03/18 08:56:56;;;;;;;;;;;;;;;21.78;26.50;97696.91;4999358;28;796;-77
2024/03/18 08:59:22;;;;;;;;;;;;;;;21.69;26.74;97685.44;4979128;28;1136;-77
2024/03/18 09:01:48;;;;;;;;;;;;;;;21.74;26.56;97690.53;4979223;28;842;-77
2024/03/18 09:04:14;;;;;;;;;;;;;;;21.50;26.85;97692.13;4963133;28;772;-77
2024/03/18 09:06:40;;;;;;;;;;;;;;;21.53;27.08;97696.88;4962883;28;1993;-77
2024/03/18 09:09:06;;;;;;;;;;;;;;;21.60;26.90;97691.00;4979213;28;752;-77
2024/03/18 09:11:32;;;;;;;;;;;;;;;21.90;26.34;97683.16;4979530;28;798;-77
2024/03/18 09:13:58;;;;;;;;;;;;;;;21.63;26.83;97680.81;4963090;28;968;-77
2024/03/18 09:16:24;;;;;;;;;;;;;;;21.76;26.60;97688.06;4979183;28;859;-77
2024/03/18 09:18:49;;;;;;;;;;;;;;;21.61;26.65;97686.94;4996837;28;886;-77
2024/03/18 09:21:16;;;;;;;;;;;;;;;21.14;27.25;97693.19;5001846;28;1203;-77
2024/03/18 09:23:43;;;;;;;;;;;;;;;21.25;27.42;97695.69;4962218;28;1152;-77
2024/03/18 09:26:08;;;;;;;;;;;;;;;21.65;26.74;97686.81;4979496;28;1910;-77
2024/03/18 09:28:34;;;;;;;;;;;;;;;21.69;26.85;97679.78;4962250;28;1190;-77
2024/03/18 09:31:00;;;;;;;;;;;;;;;21.79;26.78;97675.81;4979389;28;1410;-77
2024/03/18 09:33:26;;;;;;;;;;;;;;;21.92;26.30;97677.88;4962394;28;768;-77
2024/03/18 09:35:52;;;;;;;;;;;;;;;21.87;26.50;97686.94;4931219;28;904;-77
2024/03/18 09:38:17;;;;;;;;;;;;;;;21.48;27.17;97672.75;4978589;28;801;-77
2024/03/18 09:40:43;;;;;;;;;;;;;;;21.23;27.46;97679.16;4962077;28;864;-77
2024/03/18 09:43:09;;;;;;;;;;;;;;;21.21;27.26;97681.66;4978090;28;953;-77
2024/03/18 09:45:35;;;;;;;;;;;;;;;21.92;26.50;97672.19;4962245;28;1989;-77
2024/03/18 09:48:00;;;;;;;;;;;;;;;21.91;26.63;97674.22;4962511;28;1030;-77
2024/03/18 09:50:26;;;;;;;;;;;;;;;21.69;26.86;97671.28;4978738;28;803;-77
2024/03/18 09:52:52;;;;;;;;;;;;;;;21.75;26.85;97674.34;4961990;28;811;-77
2024/03/18 09:55:21;;;;;;;;;;;;;;;21.54;26.86;97670.94;5008975;28;783;-77
2024/03/18 09:57:47;;;;;;;;;;;;;;;21.19;27.40;97672.84;5018601;28;859;-77
2024/03/18 10:00:13;;;;;;;;;;;;;;;21.09;27.49;97676.78;5017548;28;944;-77
2024/03/18 10:02:39;;;;;;;;;;;;;;;21.49;26.93;97679.22;5035219;28;1113;-77
2024/03/18 10:05:09;;;;;;;;;;;;;;;21.57;27.02;97672.09;5034978;28;1914;-77
2024/03/18 10:07:35;;;;;;;;;;;;;;;21.63;27.03;97675.94;5034978;28;876;-77
2024/03/18 10:10:02;;;;;;;;;;;;;;;21.62;26.67;97677.19;5018169;28;755;-77
2024/03/18 10:12:27;;;;;;;;;;;;;;;21.74;26.80;97678.44;5035268;28;744;-77
2024/03/18 10:14:53;;;;;;;;;;;;;;;21.56;27.03;97668.47;5034266;28;789;-77
2024/03/18 10:17:18;;;;;;;;;;;;;;;21.40;27.00;97673.44;5034794;28;732;-77
2024/03/18 10:19:44;;;;;;;;;;;;;;;21.52;26.77;97667.00;5018193;28;1135;-77
2024/03/18 10:22:10;;;;;;;;;;;;;;;21.44;27.03;97659.97;5019596;28;822;-77
2024/03/18 10:24:38;;;;;;;;;;;;;;;21.68;26.73;97657.59;5034500;28;702;-77
2024/03/18 10:27:03;;;;;;;;;;;;;;;21.85;26.33;97657.00;5034532;28;1961;-77
2024/03/18 10:29:29;;;;;;;;;;;;;;;21.68;26.69;97641.41;5017680;28;1199;-77
2024/03/18 10:31:55;;;;;;;;;;;;;;;21.81;26.57;97649.88;5017170;28;912;-77
2024/03/18 10:34:23;;;;;;;;;;;;;;;21.87;26.60;97644.44;5018749;28;727;-77
2024/03/18 10:36:49;;;;;;;;;;;;;;;21.79;26.44;97641.84;5018937;28;708;-77
2024/03/18 10:39:16;;;;;;;;;;;;;;;21.68;26.43;97640.59;5018951;28;793;-77
2024/03/18 10:41:41;;;;;;;;;;;;;;;21.68;26.94;97632.91;5034317;28;803;-77
2024/03/18 10:44:17;;;;;;;;;;;;;;;21.64;26.68;97635.06;5017510;28;1109;-77
2024/03/18 10:46:46;;;;;;;;;;;;;;;21.85;26.50;97640.00;5017945;28;2336;-77
2024/03/18 10:49:16;;;;;;;;;;;;;;;21.91;26.57;97630.94;5017294;28;796;-77
2024/03/18 10:51:44;;;;;;;;;;;;;;;21.61;26.71;97630.31;5017556;28;830;-77
2024/03/18 10:54:11;;;;;;;;;;;;;;;21.59;26.70;97622.25;5018493;28;830;-77
2024/03/18 10:56:37;;;;;;;;;;;;;;;21.21;27.37;97616.56;5034346;28;838;-78
2024/03/18 10:59:02;;;;;;;;;;;;;;;21.52;26.86;97621.72;5035416;28;893;-77
2024/03/18 11:01:29;;;;;;;;;;;;;;;21.72;26.84;97619.44;5019989;28;858;-77
2024/03/18 11:03:54;;;;;;;;;;;;;;;21.72;26.58;97610.94;5035531;28;1019;-77
2024/03/18 11:06:20;;;;;;;;;;;;;;;21.84;26.53;97604.44;5019500;28;1965;-77
2024/03/18 11:08:47;;;;;;;;;;;;;;;21.73;26.41;97609.69;5035456;28;777;-77
2024/03/18 11:11:14;;;;;;;;;;;;;;;21.57;26.71;97609.81;4987357;28;1220;-77
2024/03/18 11:13:41;;;;;;;;;;;;;;;21.46;26.81;97600.88;5002502;28;928;-77
2024/03/18 11:16:07;;;;;;;;;;;;;;;21.72;26.57;97598.81;5019794;28;771;-77
2024/03/18 11:18:37;;;;;;;;;;;;;;;21.72;26.81;97595.97;5002671;28;873;-77
2024/03/18 11:21:03;;;;;;;;;;;;;;;21.69;26.91;97597.66;5004077;28;811;-77
2024/03/18 11:23:32;;;;;;;;;;;;;;;21.75;26.72;97587.34;5015182;28;901;-77
2024/03/18 11:25:58;;;;;;;;;;;;;;;21.72;26.47;97595.97;5016157;28;1914;-77
2024/03/18 11:28:33;;;;;;;;;;;;;;;21.88;26.38;97592.22;5015381;28;1132;-77
2024/03/18 11:30:59;;;;;;;;;;;;;;;21.61;26.70;97589.88;4998745;28;942;-77
2024/03/18 11:33:26;;;;;;;;;;;;;;;21.53;26.78;97584.44;4995677;28;1625;-77
2024/03/18 11:35:53;;;;;;;;;;;;;;;21.77;26.67;97575.59;5012879;28;1173;-76
2024/03/18 11:38:19;;;;;;;;;;;;;;;21.78;26.65;97577.94;4995558;28;909;-77
2024/03/18 11:40:45;;;;;;;;;;;;;;;21.73;26.74;97572.88;4996134;28;769;-77
2024/03/18 11:43:10;;;;;;;;;;;;;;;21.81;26.31;97571.38;4996256;28;799;-77
2024/03/18 11:45:36;;;;;;;;;;;;;;;21.56;26.71;97577.09;4995828;28;1902;-77
2024/03/18 11:48:11;;;;;;;;;;;;;;;21.18;27.25;97572.19;4995991;28;892;-77
2024/03/18 11:50:40;;;;;;;;;;;;;;;21.60;26.90;97560.75;4996256;28;945;-77
2024/03/18 11:53:09;;;;;;;;;;;;;;;21.88;26.76;97564.69;4996102;28;1270;-77
2024/03/18 11:55:38;;;;;;;;;;;;;;;21.90;26.55;97555.72;4996180;28;982;-77
2024/03/18 11:58:07;;;;;;;;;;;;;;;21.80;26.78;97552.78;4995446;28;1219;-77
2024/03/18 12:00:33;;;;;;;;;;;;;;;21.78;26.68;97546.81;5006911;28;798;-77
2024/03/18 12:03:04;;;;;;;;;;;;;;;21.70;26.81;97548.28;5018060;28;807;-77
2024/03/18 12:05:30;;;;;;;;;;;;;;;21.10;27.42;97545.41;5037151;28;1978;-77
2024/03/18 12:07:55;;;;;;;;;;;;;;;21.39;27.13;97544.50;5020309;28;736;-77
2024/03/18 12:10:21;;;;;;;;;;;;;;;21.68;27.06;97545.13;5018993;28;831;-77
2024/03/18 12:12:47;;;;;;;;;;;;;;;21.91;26.52;97534.63;4983394;28;879;-77
2024/03/18 12:15:12;;;;;;;;;;;;;;;22.01;26.51;97539.91;4960587;28;968;-76
2024/03/18 12:17:38;;;;;;;;;;;;;;;21.79;26.57;97537.03;4961140;28;892;-77
2024/03/18 12:20:06;;;;;;;;;;;;;;;21.36;27.07;97540.53;4960367;28;906;-77
2024/03/18 12:22:34;;;;;;;;;;;;;;;21.46;27.17;97533.75;4960987;28;907;-77
2024/03/18 12:30:32;;;;;;;;;;;;;;;21.77;26.62;97527.44;4947025;28;933;-77
2024/03/18 12:32:58;;;;;;;;;;;;;;;21.90;26.49;97521.72;4922236;29;1114;-78
2024/03/18 12:35:23;;;;;;;;;;;;;;;21.92;26.24;97522.84;4922303;29;896;-77
2024/03/18 12:37:52;;;;;;;;;;;;;;;21.46;27.07;97525.25;4921988;29;1302;-77
2024/03/18 12:40:18;;;;;;;;;;;;;;;21.10;27.49;97522.75;4921915;29;914;-77
2024/03/18 12:42:46;;;;;;;;;;;;;;;21.20;27.31;97521.63;4924878;29;858;-77
2024/03/18 12:45:12;;;;;;;;;;;;;;;21.74;26.64;97514.97;4944224;29;1984;-77
2024/03/18 12:47:38;;;;;;;;;;;;;;;21.71;26.93;97515.91;4961139;29;855;-77
2024/03/18 12:50:05;;;;;;;;;;;;;;;21.81;26.63;97514.75;4959999;29;926;-77
2024/03/18 12:52:35;;;;;;;;;;;;;;;21.82;26.61;97509.88;4994064;28;1176;-77
2024/03/18 12:55:02;;;;;;;;;;;;;;;21.62;26.77;97515.03;4998575;28;724;-77
2024/03/18 12:57:27;;;;;;;;;;;;;;;21.40;26.90;97507.25;4999364;28;777;-77
2024/03/18 12:59:53;;;;;;;;;;;;;;;21.28;26.97;97511.66;4998992;28;1082;-77
2024/03/18 13:02:18;;;;;;;;;;;;;;;21.45;27.05;97503.03;4999310;28;759;-77